sensor_id;sensor_type;location;lat;lon;timestamp;P1;durP1;ratioP1;P2;durP2;ratioP2
11711;SDS011;5912;51.034;6.984;2022-08-14T00:00:13;4.30;;;3.85;;
11711;SDS011;5912;51.034;6.984;2022-08-14T00:02:40;4.43;;;3.70;;
11711;SDS011;5912;51.034;6.984;2022-08-14T00:05:07;5.85;;;3.65;;
11711;SDS011;5912;51.034;6.984;2022-08-14T00:07:34;6.20;;;3.40;;
11711;SDS011;5912;51.034;6.984;2022-08-14T00:10:00;4.20;;;3.83;;
11711;SDS011;5912;51.034;6.984;2022-08-14T00:12:27;4.20;;;3.80;;
11711;SDS011;5912;51.034;6.984;2022-08-14T00:14:54;5.60;;;3.75;;
11711;SDS011;5912;51.034;6.984;2022-08-14T00:17:19;4.10;;;3.75;;
11711;SDS011;5912;51.034;6.984;2022-08-14T00:19:44;4.38;;;3.85;;
11711;SDS011;5912;51.034;6.984;2022-08-14T00:22:10;4.30;;;3.70;;
11711;SDS011;5912;51.034;6.984;2022-08-14T00:24:39;4.30;;;3.90;;
11711;SDS011;5912;51.034;6.984;2022-08-14T00:27:04;4.20;;;3.80;;
11711;SDS011;5912;51.034;6.984;2022-08-14T00:29:30;4.53;;;4.07;;
11711;SDS011;5912;51.034;6.984;2022-08-14T00:31:55;5.18;;;4.18;;
11711;SDS011;5912;51.034;6.984;2022-08-14T00:34:21;4.18;;;3.78;;
11711;SDS011;5912;51.034;6.984;2022-08-14T00:36:46;5.22;;;4.20;;
11711;SDS011;5912;51.034;6.984;2022-08-14T00:39:12;6.43;;;3.85;;
11711;SDS011;5912;51.034;6.984;2022-08-14T00:41:39;5.43;;;3.90;;
11711;SDS011;5912;51.034;6.984;2022-08-14T00:44:04;4.60;;;4.20;;
11711;SDS011;5912;51.034;6.984;2022-08-14T00:46:29;4.25;;;3.90;;
11711;SDS011;5912;51.034;6.984;2022-08-14T00:48:55;6.07;;;4.35;;
11711;SDS011;5912;51.034;6.984;2022-08-14T00:51:21;4.72;;;4.32;;
11711;SDS011;5912;51.034;6.984;2022-08-14T00:53:46;4.93;;;4.53;;
11711;SDS011;5912;51.034;6.984;2022-08-14T00:56:14;5.18;;;4.68;;
11711;SDS011;5912;51.034;6.984;2022-08-14T00:58:40;7.75;;;4.43;;
11711;SDS011;5912;51.034;6.984;2022-08-14T01:01:07;4.50;;;4.10;;
11711;SDS011;5912;51.034;6.984;2022-08-14T01:03:35;5.07;;;4.57;;
11711;SDS011;5912;51.034;6.984;2022-08-14T01:06:03;4.63;;;4.22;;
11711;SDS011;5912;51.034;6.984;2022-08-14T01:08:33;6.55;;;4.20;;
11711;SDS011;5912;51.034;6.984;2022-08-14T01:10:59;4.78;;;4.25;;
11711;SDS011;5912;51.034;6.984;2022-08-14T01:13:35;4.90;;;4.28;;
11711;SDS011;5912;51.034;6.984;2022-08-14T01:16:05;4.93;;;4.45;;
11711;SDS011;5912;51.034;6.984;2022-08-14T01:18:32;4.65;;;4.22;;
11711;SDS011;5912;51.034;6.984;2022-08-14T01:21:23;5.65;;;4.50;;
11711;SDS011;5912;51.034;6.984;2022-08-14T01:23:55;5.03;;;4.47;;
11711;SDS011;5912;51.034;6.984;2022-08-14T01:26:20;4.95;;;4.43;;
11711;SDS011;5912;51.034;6.984;2022-08-14T01:28:49;5.00;;;4.50;;
11711;SDS011;5912;51.034;6.984;2022-08-14T01:31:20;5.55;;;5.05;;
11711;SDS011;5912;51.034;6.984;2022-08-14T01:33:47;6.05;;;4.70;;
11711;SDS011;5912;51.034;6.984;2022-08-14T01:36:14;5.22;;;4.75;;
11711;SDS011;5912;51.034;6.984;2022-08-14T01:38:41;6.90;;;4.43;;
11711;SDS011;5912;51.034;6.984;2022-08-14T01:41:10;5.13;;;4.63;;
11711;SDS011;5912;51.034;6.984;2022-08-14T01:46:17;5.40;;;4.85;;
11711;SDS011;5912;51.034;6.984;2022-08-14T01:48:45;5.07;;;4.65;;
11711;SDS011;5912;51.034;6.984;2022-08-14T01:51:11;5.50;;;5.00;;
11711;SDS011;5912;51.034;6.984;2022-08-14T01:53:39;5.88;;;5.10;;
11711;SDS011;5912;51.034;6.984;2022-08-14T01:56:05;6.45;;;5.10;;
11711;SDS011;5912;51.034;6.984;2022-08-14T01:58:31;6.22;;;4.70;;
11711;SDS011;5912;51.034;6.984;2022-08-14T02:00:57;5.07;;;4.57;;
11711;SDS011;5912;51.034;6.984;2022-08-14T02:03:27;5.47;;;4.97;;
11711;SDS011;5912;51.034;6.984;2022-08-14T02:06:00;5.18;;;4.70;;
11711;SDS011;5912;51.034;6.984;2022-08-14T02:08:27;6.00;;;5.10;;
11711;SDS011;5912;51.034;6.984;2022-08-14T02:10:54;5.22;;;4.72;;
11711;SDS011;5912;51.034;6.984;2022-08-14T02:13:39;5.10;;;4.70;;
11711;SDS011;5912;51.034;6.984;2022-08-14T02:16:05;5.60;;;5.10;;
11711;SDS011;5912;51.034;6.984;2022-08-14T02:18:31;5.55;;;5.05;;
11711;SDS011;5912;51.034;6.984;2022-08-14T02:20:57;5.40;;;4.85;;
11711;SDS011;5912;51.034;6.984;2022-08-14T02:23:23;5.57;;;4.90;;
11711;SDS011;5912;51.034;6.984;2022-08-14T02:25:48;5.55;;;5.05;;
11711;SDS011;5912;51.034;6.984;2022-08-14T02:28:13;5.85;;;5.35;;
11711;SDS011;5912;51.034;6.984;2022-08-14T02:30:39;6.00;;;5.50;;
11711;SDS011;5912;51.034;6.984;2022-08-14T02:33:05;5.55;;;5.05;;
11711;SDS011;5912;51.034;6.984;2022-08-14T02:35:31;8.20;;;5.35;;
11711;SDS011;5912;51.034;6.984;2022-08-14T02:37:57;6.00;;;5.40;;
11711;SDS011;5912;51.034;6.984;2022-08-14T02:40:22;6.05;;;5.35;;
11711;SDS011;5912;51.034;6.984;2022-08-14T02:42:47;5.05;;;4.55;;
11711;SDS011;5912;51.034;6.984;2022-08-14T02:45:13;5.85;;;5.35;;
11711;SDS011;5912;51.034;6.984;2022-08-14T02:47:39;7.25;;;5.63;;
11711;SDS011;5912;51.034;6.984;2022-08-14T02:50:05;6.00;;;5.50;;
11711;SDS011;5912;51.034;6.984;2022-08-14T02:52:30;6.15;;;5.65;;
11711;SDS011;5912;51.034;6.984;2022-08-14T02:54:58;5.90;;;5.40;;
11711;SDS011;5912;51.034;6.984;2022-08-14T02:57:25;6.07;;;5.22;;
11711;SDS011;5912;51.034;6.984;2022-08-14T02:59:51;6.15;;;5.35;;
11711;SDS011;5912;51.034;6.984;2022-08-14T03:02:18;6.05;;;5.35;;
11711;SDS011;5912;51.034;6.984;2022-08-14T03:04:43;6.07;;;5.03;;
11711;SDS011;5912;51.034;6.984;2022-08-14T03:07:08;5.75;;;5.25;;
11711;SDS011;5912;51.034;6.984;2022-08-14T03:09:35;5.82;;;5.32;;
11711;SDS011;5912;51.034;6.984;2022-08-14T03:12:00;5.47;;;4.97;;
11711;SDS011;5912;51.034;6.984;2022-08-14T03:14:27;6.32;;;5.72;;
11711;SDS011;5912;51.034;6.984;2022-08-14T03:16:52;6.78;;;5.65;;
11711;SDS011;5912;51.034;6.984;2022-08-14T03:19:18;5.80;;;5.30;;
11711;SDS011;5912;51.034;6.984;2022-08-14T03:21:43;5.70;;;5.20;;
11711;SDS011;5912;51.034;6.984;2022-08-14T03:24:09;6.43;;;5.55;;
11711;SDS011;5912;51.034;6.984;2022-08-14T03:26:38;5.85;;;5.35;;
11711;SDS011;5912;51.034;6.984;2022-08-14T03:29:06;6.20;;;4.93;;
11711;SDS011;5912;51.034;6.984;2022-08-14T03:31:32;7.28;;;5.47;;
11711;SDS011;5912;51.034;6.984;2022-08-14T03:33:58;5.93;;;5.30;;
11711;SDS011;5912;51.034;6.984;2022-08-14T03:36:23;5.90;;;5.20;;
11711;SDS011;5912;51.034;6.984;2022-08-14T03:38:49;7.15;;;5.53;;
11711;SDS011;5912;51.034;6.984;2022-08-14T03:41:22;6.47;;;5.80;;
11711;SDS011;5912;51.034;6.984;2022-08-14T03:43:52;5.90;;;5.40;;
11711;SDS011;5912;51.034;6.984;2022-08-14T03:46:19;7.07;;;6.00;;
11711;SDS011;5912;51.034;6.984;2022-08-14T03:48:46;7.30;;;6.13;;
11711;SDS011;5912;51.034;6.984;2022-08-14T03:51:12;6.13;;;5.53;;
11711;SDS011;5912;51.034;6.984;2022-08-14T03:53:39;7.05;;;5.72;;
11711;SDS011;5912;51.034;6.984;2022-08-14T03:56:10;6.03;;;5.43;;
11711;SDS011;5912;51.034;6.984;2022-08-14T03:58:42;6.47;;;5.85;;
11711;SDS011;5912;51.034;6.984;2022-08-14T04:01:10;6.78;;;6.10;;
11711;SDS011;5912;51.034;6.984;2022-08-14T04:03:36;6.13;;;5.53;;
11711;SDS011;5912;51.034;6.984;2022-08-14T04:06:02;6.60;;;5.93;;
11711;SDS011;5912;51.034;6.984;2022-08-14T04:08:27;6.57;;;5.90;;
11711;SDS011;5912;51.034;6.984;2022-08-14T04:10:53;6.60;;;6.00;;
11711;SDS011;5912;51.034;6.984;2022-08-14T04:13:18;6.80;;;6.13;;
11711;SDS011;5912;51.034;6.984;2022-08-14T04:15:44;8.57;;;5.93;;
11711;SDS011;5912;51.034;6.984;2022-08-14T04:18:10;6.70;;;6.10;;
11711;SDS011;5912;51.034;6.984;2022-08-14T04:20:36;7.57;;;5.95;;
11711;SDS011;5912;51.034;6.984;2022-08-14T04:23:03;9.60;;;6.50;;
11711;SDS011;5912;51.034;6.984;2022-08-14T04:25:31;6.00;;;5.47;;
11711;SDS011;5912;51.034;6.984;2022-08-14T04:27:58;6.05;;;5.50;;
11711;SDS011;5912;51.034;6.984;2022-08-14T04:30:24;7.45;;;6.20;;
11711;SDS011;5912;51.034;6.984;2022-08-14T04:32:52;6.53;;;5.93;;
11711;SDS011;5912;51.034;6.984;2022-08-14T04:35:18;6.07;;;5.57;;
11711;SDS011;5912;51.034;6.984;2022-08-14T04:37:44;6.43;;;5.82;;
11711;SDS011;5912;51.034;6.984;2022-08-14T04:40:28;8.27;;;6.32;;
11711;SDS011;5912;51.034;6.984;2022-08-14T04:43:11;6.63;;;6.03;;
11711;SDS011;5912;51.034;6.984;2022-08-14T04:45:55;6.60;;;6.00;;
11711;SDS011;5912;51.034;6.984;2022-08-14T04:48:21;7.10;;;6.40;;
11711;SDS011;5912;51.034;6.984;2022-08-14T04:50:47;6.35;;;5.75;;
11711;SDS011;5912;51.034;6.984;2022-08-14T04:53:15;6.63;;;6.03;;
11711;SDS011;5912;51.034;6.984;2022-08-14T04:55:43;6.50;;;5.90;;
11711;SDS011;5912;51.034;6.984;2022-08-14T04:58:12;6.28;;;5.65;;
11711;SDS011;5912;51.034;6.984;2022-08-14T05:00:41;6.65;;;6.05;;
11711;SDS011;5912;51.034;6.984;2022-08-14T05:03:08;6.78;;;6.05;;
11711;SDS011;5912;51.034;6.984;2022-08-14T05:05:34;7.03;;;6.35;;
11711;SDS011;5912;51.034;6.984;2022-08-14T05:08:06;7.20;;;6.38;;
11711;SDS011;5912;51.034;6.984;2022-08-14T05:10:36;6.28;;;5.68;;
11711;SDS011;5912;51.034;6.984;2022-08-14T05:13:06;7.20;;;6.13;;
11711;SDS011;5912;51.034;6.984;2022-08-14T05:15:33;7.30;;;6.30;;
11711;SDS011;5912;51.034;6.984;2022-08-14T05:18:01;6.40;;;5.80;;
11711;SDS011;5912;51.034;6.984;2022-08-14T05:20:27;6.00;;;5.43;;
11711;SDS011;5912;51.034;6.984;2022-08-14T05:22:53;7.90;;;6.47;;
11711;SDS011;5912;51.034;6.984;2022-08-14T05:25:19;6.95;;;6.28;;
11711;SDS011;5912;51.034;6.984;2022-08-14T05:27:45;6.63;;;5.78;;
11711;SDS011;5912;51.034;6.984;2022-08-14T05:30:10;6.55;;;5.95;;
11711;SDS011;5912;51.034;6.984;2022-08-14T05:32:36;7.45;;;6.75;;
11711;SDS011;5912;51.034;6.984;2022-08-14T05:35:02;6.82;;;6.22;;
11711;SDS011;5912;51.034;6.984;2022-08-14T05:37:28;6.32;;;5.72;;
11711;SDS011;5912;51.034;6.984;2022-08-14T05:39:54;6.90;;;6.22;;
11711;SDS011;5912;51.034;6.984;2022-08-14T05:45:07;7.30;;;6.60;;
11711;SDS011;5912;51.034;6.984;2022-08-14T05:47:37;6.85;;;6.25;;
11711;SDS011;5912;51.034;6.984;2022-08-14T05:50:03;6.47;;;5.97;;
11711;SDS011;5912;51.034;6.984;2022-08-14T05:52:30;7.68;;;6.50;;
11711;SDS011;5912;51.034;6.984;2022-08-14T05:54:55;6.75;;;6.15;;
11711;SDS011;5912;51.034;6.984;2022-08-14T05:57:22;7.15;;;6.47;;
11711;SDS011;5912;51.034;6.984;2022-08-14T05:59:47;7.28;;;6.63;;
11711;SDS011;5912;51.034;6.984;2022-08-14T06:02:12;6.95;;;6.35;;
11711;SDS011;5912;51.034;6.984;2022-08-14T06:04:38;6.35;;;5.75;;
11711;SDS011;5912;51.034;6.984;2022-08-14T06:07:03;6.80;;;6.07;;
11711;SDS011;5912;51.034;6.984;2022-08-14T06:09:29;6.57;;;5.97;;
11711;SDS011;5912;51.034;6.984;2022-08-14T06:11:55;7.15;;;6.45;;
11711;SDS011;5912;51.034;6.984;2022-08-14T06:14:20;7.05;;;6.30;;
11711;SDS011;5912;51.034;6.984;2022-08-14T06:16:46;6.85;;;6.25;;
11711;SDS011;5912;51.034;6.984;2022-08-14T06:19:11;7.68;;;6.97;;
11711;SDS011;5912;51.034;6.984;2022-08-14T06:21:37;6.82;;;6.22;;
11711;SDS011;5912;51.034;6.984;2022-08-14T06:24:02;6.43;;;5.85;;
11711;SDS011;5912;51.034;6.984;2022-08-14T06:26:28;7.75;;;6.15;;
11711;SDS011;5912;51.034;6.984;2022-08-14T06:28:53;6.93;;;6.22;;
11711;SDS011;5912;51.034;6.984;2022-08-14T06:31:19;6.53;;;5.93;;
11711;SDS011;5912;51.034;6.984;2022-08-14T06:33:45;7.18;;;6.47;;
11711;SDS011;5912;51.034;6.984;2022-08-14T06:36:10;6.85;;;6.25;;
11711;SDS011;5912;51.034;6.984;2022-08-14T06:38:35;6.07;;;5.57;;
11711;SDS011;5912;51.034;6.984;2022-08-14T06:41:00;6.35;;;5.75;;
11711;SDS011;5912;51.034;6.984;2022-08-14T06:43:26;6.75;;;6.07;;
11711;SDS011;5912;51.034;6.984;2022-08-14T06:45:51;6.05;;;5.50;;
11711;SDS011;5912;51.034;6.984;2022-08-14T06:50:43;5.38;;;4.97;;
11711;SDS011;5912;51.034;6.984;2022-08-14T06:53:09;6.75;;;5.57;;
11711;SDS011;5912;51.034;6.984;2022-08-14T06:55:35;5.95;;;5.45;;
11711;SDS011;5912;51.034;6.984;2022-08-14T06:58:01;5.82;;;5.25;;
11711;SDS011;5912;51.034;6.984;2022-08-14T07:00:27;5.50;;;5.00;;
11711;SDS011;5912;51.034;6.984;2022-08-14T07:02:53;5.63;;;5.03;;
11711;SDS011;5912;51.034;6.984;2022-08-14T07:05:38;6.50;;;5.20;;
11711;SDS011;5912;51.034;6.984;2022-08-14T07:08:17;4.82;;;4.43;;
11711;SDS011;5912;51.034;6.984;2022-08-14T07:10:48;5.70;;;5.03;;
11711;SDS011;5912;51.034;6.984;2022-08-14T07:13:15;5.63;;;4.95;;
11711;SDS011;5912;51.034;6.984;2022-08-14T07:15:45;5.05;;;4.63;;
11711;SDS011;5912;51.034;6.984;2022-08-14T07:18:14;4.90;;;4.50;;
11711;SDS011;5912;51.034;6.984;2022-08-14T07:20:44;4.88;;;4.47;;
11711;SDS011;5912;51.034;6.984;2022-08-14T07:23:09;5.10;;;4.60;;
11711;SDS011;5912;51.034;6.984;2022-08-14T07:25:35;6.18;;;4.60;;
11711;SDS011;5912;51.034;6.984;2022-08-14T07:28:12;5.20;;;4.70;;
11711;SDS011;5912;51.034;6.984;2022-08-14T07:30:39;4.82;;;4.43;;
11711;SDS011;5912;51.034;6.984;2022-08-14T07:33:05;5.63;;;4.25;;
11711;SDS011;5912;51.034;6.984;2022-08-14T07:35:31;5.00;;;4.22;;
11711;SDS011;5912;51.034;6.984;2022-08-14T07:37:58;5.68;;;5.07;;
11711;SDS011;5912;51.034;6.984;2022-08-14T07:40:23;4.95;;;4.45;;
11711;SDS011;5912;51.034;6.984;2022-08-14T07:42:49;4.57;;;4.13;;
11711;SDS011;5912;51.034;6.984;2022-08-14T07:45:14;4.65;;;4.10;;
11711;SDS011;5912;51.034;6.984;2022-08-14T07:47:40;3.88;;;3.58;;
11711;SDS011;5912;51.034;6.984;2022-08-14T07:50:11;5.10;;;4.57;;
11711;SDS011;5912;51.034;6.984;2022-08-14T07:52:36;4.32;;;3.92;;
11711;SDS011;5912;51.034;6.984;2022-08-14T07:55:02;5.53;;;4.05;;
11711;SDS011;5912;51.034;6.984;2022-08-14T07:57:27;4.43;;;4.03;;
11711;SDS011;5912;51.034;6.984;2022-08-14T07:59:52;4.68;;;4.20;;
11711;SDS011;5912;51.034;6.984;2022-08-14T08:02:18;3.97;;;3.67;;
11711;SDS011;5912;51.034;6.984;2022-08-14T08:04:45;3.92;;;3.63;;
11711;SDS011;5912;51.034;6.984;2022-08-14T08:07:13;4.68;;;4.28;;
11711;SDS011;5912;51.034;6.984;2022-08-14T08:09:42;3.38;;;3.13;;
11711;SDS011;5912;51.034;6.984;2022-08-14T08:12:12;3.50;;;3.20;;
11711;SDS011;5912;51.034;6.984;2022-08-14T08:14:40;3.72;;;3.42;;
11711;SDS011;5912;51.034;6.984;2022-08-14T08:17:07;3.55;;;3.28;;
11711;SDS011;5912;51.034;6.984;2022-08-14T08:19:33;6.50;;;3.72;;
11711;SDS011;5912;51.034;6.984;2022-08-14T08:21:58;3.88;;;3.58;;
11711;SDS011;5912;51.034;6.984;2022-08-14T08:24:25;3.95;;;3.55;;
11711;SDS011;5912;51.034;6.984;2022-08-14T08:26:51;3.58;;;3.28;;
11711;SDS011;5912;51.034;6.984;2022-08-14T08:29:17;3.58;;;3.20;;
11711;SDS011;5912;51.034;6.984;2022-08-14T08:31:47;3.70;;;3.40;;
11711;SDS011;5912;51.034;6.984;2022-08-14T08:34:17;3.65;;;3.35;;
11711;SDS011;5912;51.034;6.984;2022-08-14T08:36:44;4.95;;;3.33;;
11711;SDS011;5912;51.034;6.984;2022-08-14T08:39:10;4.00;;;3.60;;
11711;SDS011;5912;51.034;6.984;2022-08-14T08:41:42;4.15;;;3.75;;
11711;SDS011;5912;51.034;6.984;2022-08-14T08:44:11;3.85;;;3.55;;
11711;SDS011;5912;51.034;6.984;2022-08-14T08:46:36;3.70;;;3.40;;
11711;SDS011;5912;51.034;6.984;2022-08-14T08:49:02;3.50;;;3.20;;
11711;SDS011;5912;51.034;6.984;2022-08-14T08:51:34;3.45;;;3.15;;
11711;SDS011;5912;51.034;6.984;2022-08-14T08:54:05;3.72;;;3.38;;
11711;SDS011;5912;51.034;6.984;2022-08-14T08:56:42;3.50;;;3.20;;
11711;SDS011;5912;51.034;6.984;2022-08-14T09:01:40;3.60;;;3.30;;
11711;SDS011;5912;51.034;6.984;2022-08-14T09:04:06;3.35;;;3.05;;
11711;SDS011;5912;51.034;6.984;2022-08-14T09:06:31;4.05;;;3.65;;
11711;SDS011;5912;51.034;6.984;2022-08-14T09:09:29;4.20;;;3.15;;
11711;SDS011;5912;51.034;6.984;2022-08-14T09:11:54;4.68;;;3.55;;
11711;SDS011;5912;51.034;6.984;2022-08-14T09:14:22;3.95;;;3.10;;
11711;SDS011;5912;51.034;6.984;2022-08-14T09:16:49;3.38;;;3.08;;
11711;SDS011;5912;51.034;6.984;2022-08-14T09:19:15;3.33;;;3.03;;
11711;SDS011;5912;51.034;6.984;2022-08-14T09:21:41;3.75;;;2.90;;
11711;SDS011;5912;51.034;6.984;2022-08-14T09:24:07;2.80;;;2.60;;
11711;SDS011;5912;51.034;6.984;2022-08-14T09:26:34;3.28;;;2.97;;
11711;SDS011;5912;51.034;6.984;2022-08-14T09:29:00;2.88;;;2.63;;
11711;SDS011;5912;51.034;6.984;2022-08-14T09:31:26;3.15;;;2.78;;
11711;SDS011;5912;51.034;6.984;2022-08-14T09:36:51;3.25;;;2.83;;
11711;SDS011;5912;51.034;6.984;2022-08-14T09:47:18;2.95;;;2.70;;
11711;SDS011;5912;51.034;6.984;2022-08-14T09:49:45;2.88;;;2.65;;
11711;SDS011;5912;51.034;6.984;2022-08-14T09:52:12;2.75;;;2.55;;
11711;SDS011;5912;51.034;6.984;2022-08-14T09:54:47;4.18;;;3.00;;
11711;SDS011;5912;51.034;6.984;2022-08-14T09:57:28;2.75;;;2.55;;
11711;SDS011;5912;51.034;6.984;2022-08-14T09:59:55;3.20;;;2.90;;
11711;SDS011;5912;51.034;6.984;2022-08-14T10:02:27;2.88;;;2.65;;
11711;SDS011;5912;51.034;6.984;2022-08-14T10:05:06;2.60;;;2.40;;
11711;SDS011;5912;51.034;6.984;2022-08-14T10:07:47;2.50;;;2.30;;
11711;SDS011;5912;51.034;6.984;2022-08-14T10:10:29;2.67;;;2.47;;
11711;SDS011;5912;51.034;6.984;2022-08-14T10:12:57;3.20;;;2.67;;
11711;SDS011;5912;51.034;6.984;2022-08-14T10:15:26;4.25;;;2.55;;
11711;SDS011;5912;51.034;6.984;2022-08-14T10:21:25;2.70;;;2.50;;
11711;SDS011;5912;51.034;6.984;2022-08-14T10:23:50;2.60;;;2.40;;
11711;SDS011;5912;51.034;6.984;2022-08-14T10:26:17;2.47;;;2.28;;
11711;SDS011;5912;51.034;6.984;2022-08-14T10:28:47;2.63;;;2.40;;
11711;SDS011;5912;51.034;6.984;2022-08-14T10:31:24;2.33;;;2.13;;
11711;SDS011;5912;51.034;6.984;2022-08-14T10:33:57;2.63;;;2.42;;
11711;SDS011;5912;51.034;6.984;2022-08-14T10:36:25;2.45;;;2.30;;
11711;SDS011;5912;51.034;6.984;2022-08-14T10:38:55;2.13;;;1.92;;
11711;SDS011;5912;51.034;6.984;2022-08-14T10:41:22;4.07;;;2.20;;
11711;SDS011;5912;51.034;6.984;2022-08-14T10:44:06;2.10;;;1.90;;
11711;SDS011;5912;51.034;6.984;2022-08-14T10:46:41;2.53;;;2.05;;
11711;SDS011;5912;51.034;6.984;2022-08-14T10:49:32;2.55;;;2.35;;
11711;SDS011;5912;51.034;6.984;2022-08-14T10:52:10;2.22;;;2.03;;
11711;SDS011;5912;51.034;6.984;2022-08-14T10:54:44;1.90;;;1.80;;
11711;SDS011;5912;51.034;6.984;2022-08-14T11:00:26;2.20;;;2.00;;
11711;SDS011;5912;51.034;6.984;2022-08-14T11:06:18;2.05;;;1.95;;
11711;SDS011;5912;51.034;6.984;2022-08-14T11:08:47;2.03;;;1.83;;
11711;SDS011;5912;51.034;6.984;2022-08-14T11:11:13;1.80;;;1.70;;
11711;SDS011;5912;51.034;6.984;2022-08-14T11:13:39;1.85;;;1.75;;
11711;SDS011;5912;51.034;6.984;2022-08-14T11:16:08;1.80;;;1.55;;
11711;SDS011;5912;51.034;6.984;2022-08-14T11:18:35;2.35;;;1.80;;
11711;SDS011;5912;51.034;6.984;2022-08-14T11:21:01;1.90;;;1.80;;
11711;SDS011;5912;51.034;6.984;2022-08-14T11:23:31;1.63;;;1.52;;
11711;SDS011;5912;51.034;6.984;2022-08-14T11:25:59;2.33;;;2.13;;
11711;SDS011;5912;51.034;6.984;2022-08-14T11:28:31;2.03;;;1.52;;
11711;SDS011;5912;51.034;6.984;2022-08-14T11:31:09;2.10;;;1.90;;
11711;SDS011;5912;51.034;6.984;2022-08-14T11:33:37;1.95;;;1.83;;
11711;SDS011;5912;51.034;6.984;2022-08-14T11:36:04;2.17;;;1.98;;
11711;SDS011;5912;51.034;6.984;2022-08-14T11:38:37;2.08;;;1.85;;
11711;SDS011;5912;51.034;6.984;2022-08-14T11:41:05;2.00;;;1.73;;
11711;SDS011;5912;51.034;6.984;2022-08-14T11:43:31;3.58;;;1.95;;
11711;SDS011;5912;51.034;6.984;2022-08-14T11:46:04;2.10;;;2.00;;
11711;SDS011;5912;51.034;6.984;2022-08-14T11:48:30;1.90;;;1.70;;
11711;SDS011;5912;51.034;6.984;2022-08-14T11:50:55;1.85;;;1.75;;
11711;SDS011;5912;51.034;6.984;2022-08-14T11:53:28;1.92;;;1.83;;
11711;SDS011;5912;51.034;6.984;2022-08-14T11:55:56;1.88;;;1.77;;
11711;SDS011;5912;51.034;6.984;2022-08-14T11:58:35;1.85;;;1.70;;
11711;SDS011;5912;51.034;6.984;2022-08-14T12:01:03;1.73;;;1.63;;
11711;SDS011;5912;51.034;6.984;2022-08-14T12:06:51;1.80;;;1.70;;
11711;SDS011;5912;51.034;6.984;2022-08-14T12:11:58;2.30;;;2.10;;
11711;SDS011;5912;51.034;6.984;2022-08-14T12:14:25;1.48;;;1.38;;
11711;SDS011;5912;51.034;6.984;2022-08-14T12:17:00;1.80;;;1.70;;
11711;SDS011;5912;51.034;6.984;2022-08-14T12:19:28;2.00;;;1.83;;
11711;SDS011;5912;51.034;6.984;2022-08-14T12:21:53;2.20;;;2.00;;
11711;SDS011;5912;51.034;6.984;2022-08-14T12:24:19;2.13;;;1.90;;
11711;SDS011;5912;51.034;6.984;2022-08-14T12:26:55;2.80;;;1.92;;
11711;SDS011;5912;51.034;6.984;2022-08-14T12:29:21;1.95;;;1.85;;
11711;SDS011;5912;51.034;6.984;2022-08-14T12:31:55;1.83;;;1.73;;
11711;SDS011;5912;51.034;6.984;2022-08-14T12:34:22;1.80;;;1.70;;
11711;SDS011;5912;51.034;6.984;2022-08-14T12:37:02;2.20;;;2.00;;
11711;SDS011;5912;51.034;6.984;2022-08-14T12:39:32;1.80;;;1.70;;
11711;SDS011;5912;51.034;6.984;2022-08-14T12:41:57;1.85;;;1.63;;
11711;SDS011;5912;51.034;6.984;2022-08-14T12:44:31;1.75;;;1.65;;
11711;SDS011;5912;51.034;6.984;2022-08-14T12:49:33;1.80;;;1.70;;
11711;SDS011;5912;51.034;6.984;2022-08-14T12:51:59;1.50;;;1.40;;
11711;SDS011;5912;51.034;6.984;2022-08-14T12:54:27;1.90;;;1.80;;
11711;SDS011;5912;51.034;6.984;2022-08-14T12:57:15;2.40;;;1.60;;
11711;SDS011;5912;51.034;6.984;2022-08-14T12:59:39;1.90;;;1.80;;
11711;SDS011;5912;51.034;6.984;2022-08-14T13:02:04;2.13;;;1.92;;
11711;SDS011;5912;51.034;6.984;2022-08-14T13:04:30;2.97;;;1.80;;
11711;SDS011;5912;51.034;6.984;2022-08-14T13:06:59;2.30;;;2.10;;
11711;SDS011;5912;51.034;6.984;2022-08-14T13:09:31;3.47;;;2.00;;
11711;SDS011;5912;51.034;6.984;2022-08-14T13:11:56;3.47;;;3.17;;
11711;SDS011;5912;51.034;6.984;2022-08-14T13:14:25;3.20;;;2.35;;
11711;SDS011;5912;51.034;6.984;2022-08-14T13:16:54;3.72;;;3.20;;
11711;SDS011;5912;51.034;6.984;2022-08-14T13:19:21;3.95;;;3.30;;
11711;SDS011;5912;51.034;6.984;2022-08-14T13:21:48;5.85;;;5.25;;
11711;SDS011;5912;51.034;6.984;2022-08-14T13:24:16;6.55;;;5.18;;
11711;SDS011;5912;51.034;6.984;2022-08-14T13:26:44;4.80;;;3.92;;
11711;SDS011;5912;51.034;6.984;2022-08-14T13:29:12;5.57;;;3.55;;
11711;SDS011;5912;51.034;6.984;2022-08-14T13:31:40;2.90;;;2.70;;
11711;SDS011;5912;51.034;6.984;2022-08-14T13:34:11;2.83;;;2.50;;
11711;SDS011;5912;51.034;6.984;2022-08-14T13:36:37;2.40;;;2.20;;
11711;SDS011;5912;51.034;6.984;2022-08-14T13:39:03;2.20;;;2.00;;
11711;SDS011;5912;51.034;6.984;2022-08-14T13:41:28;1.92;;;1.73;;
11711;SDS011;5912;51.034;6.984;2022-08-14T13:43:57;2.10;;;1.90;;
11711;SDS011;5912;51.034;6.984;2022-08-14T13:46:23;2.63;;;2.42;;
11711;SDS011;5912;51.034;6.984;2022-08-14T13:48:48;2.72;;;2.53;;
11711;SDS011;5912;51.034;6.984;2022-08-14T13:51:15;2.38;;;2.17;;
11711;SDS011;5912;51.034;6.984;2022-08-14T13:53:45;3.15;;;2.65;;
11711;SDS011;5912;51.034;6.984;2022-08-14T13:56:12;9.52;;;8.10;;
11711;SDS011;5912;51.034;6.984;2022-08-14T13:58:40;4.70;;;4.28;;
11711;SDS011;5912;51.034;6.984;2022-08-14T14:01:14;16.48;;;9.98;;
11711;SDS011;5912;51.034;6.984;2022-08-14T14:03:42;4.47;;;4.07;;
11711;SDS011;5912;51.034;6.984;2022-08-14T14:06:13;2.70;;;2.50;;
11711;SDS011;5912;51.034;6.984;2022-08-14T14:08:43;2.60;;;2.40;;
11711;SDS011;5912;51.034;6.984;2022-08-14T14:11:12;2.33;;;2.03;;
11711;SDS011;5912;51.034;6.984;2022-08-14T14:13:39;6.70;;;5.68;;
11711;SDS011;5912;51.034;6.984;2022-08-14T14:16:05;3.90;;;3.50;;
11711;SDS011;5912;51.034;6.984;2022-08-14T14:18:33;2.55;;;2.35;;
11711;SDS011;5912;51.034;6.984;2022-08-14T14:20:59;3.20;;;2.90;;
11711;SDS011;5912;51.034;6.984;2022-08-14T14:23:25;4.13;;;3.33;;
11711;SDS011;5912;51.034;6.984;2022-08-14T14:25:52;4.80;;;3.78;;
11711;SDS011;5912;51.034;6.984;2022-08-14T14:28:18;5.90;;;5.07;;
11711;SDS011;5912;51.034;6.984;2022-08-14T14:30:45;3.20;;;2.90;;
11711;SDS011;5912;51.034;6.984;2022-08-14T14:33:12;2.15;;;1.95;;
11711;SDS011;5912;51.034;6.984;2022-08-14T14:35:41;2.00;;;1.80;;
11711;SDS011;5912;51.034;6.984;2022-08-14T14:38:11;2.00;;;1.90;;
11711;SDS011;5912;51.034;6.984;2022-08-14T14:40:38;2.67;;;2.47;;
11711;SDS011;5912;51.034;6.984;2022-08-14T14:43:04;6.05;;;5.55;;
11711;SDS011;5912;51.034;6.984;2022-08-14T14:45:34;2.65;;;2.45;;
11711;SDS011;5912;51.034;6.984;2022-08-14T14:50:58;3.08;;;2.88;;
11711;SDS011;5912;51.034;6.984;2022-08-14T14:53:25;2.92;;;2.72;;
11711;SDS011;5912;51.034;6.984;2022-08-14T14:55:52;2.53;;;2.33;;
11711;SDS011;5912;51.034;6.984;2022-08-14T14:58:19;3.30;;;3.00;;
11711;SDS011;5912;51.034;6.984;2022-08-14T15:00:44;2.75;;;2.55;;
11711;SDS011;5912;51.034;6.984;2022-08-14T15:03:11;2.63;;;2.42;;
11711;SDS011;5912;51.034;6.984;2022-08-14T15:05:36;2.78;;;2.58;;
11711;SDS011;5912;51.034;6.984;2022-08-14T15:08:02;2.42;;;2.22;;
11711;SDS011;5912;51.034;6.984;2022-08-14T15:10:29;2.70;;;2.30;;
11711;SDS011;5912;51.034;6.984;2022-08-14T15:12:55;2.80;;;2.38;;
11711;SDS011;5912;51.034;6.984;2022-08-14T15:15:21;2.33;;;2.05;;
11711;SDS011;5912;51.034;6.984;2022-08-14T15:17:46;2.28;;;2.08;;
11711;SDS011;5912;51.034;6.984;2022-08-14T15:20:12;2.42;;;2.22;;
11711;SDS011;5912;51.034;6.984;2022-08-14T15:22:39;2.40;;;2.20;;
11711;SDS011;5912;51.034;6.984;2022-08-14T15:25:05;2.42;;;2.22;;
11711;SDS011;5912;51.034;6.984;2022-08-14T15:27:33;2.75;;;2.30;;
11711;SDS011;5912;51.034;6.984;2022-08-14T15:29:58;2.90;;;2.60;;
11711;SDS011;5912;51.034;6.984;2022-08-14T15:32:24;2.67;;;2.47;;
11711;SDS011;5912;51.034;6.984;2022-08-14T15:34:49;2.17;;;2.08;;
11711;SDS011;5912;51.034;6.984;2022-08-14T15:37:15;2.58;;;2.38;;
11711;SDS011;5912;51.034;6.984;2022-08-14T15:39:40;2.20;;;2.00;;
11711;SDS011;5912;51.034;6.984;2022-08-14T15:42:06;4.05;;;2.60;;
11711;SDS011;5912;51.034;6.984;2022-08-14T15:44:33;2.60;;;2.40;;
11711;SDS011;5912;51.034;6.984;2022-08-14T15:46:58;2.65;;;2.45;;